createdAt,value
2023-02-28T00:01:46.942Z,62.32
2023-02-28T00:04:15.053Z,62.19
2023-02-28T00:06:43.419Z,62.18
2023-02-28T00:09:11.530Z,62.49
2023-02-28T00:11:39.836Z,62.39
2023-02-28T00:14:07.961Z,62.46
2023-02-28T00:16:37.509Z,62.16
2023-02-28T00:19:05.675Z,62.19
2023-02-28T00:21:33.837Z,62.34
2023-02-28T00:24:01.958Z,62.60
2023-02-28T00:26:30.271Z,62.77
2023-02-28T00:28:58.369Z,63.09
2023-02-28T00:31:27.000Z,62.87
2023-02-28T00:33:56.665Z,62.84
2023-02-28T00:36:24.788Z,62.35
2023-02-28T00:38:52.929Z,62.86
2023-02-28T00:41:21.216Z,62.78
2023-02-28T00:43:49.572Z,63.13
2023-02-28T00:46:18.095Z,62.70
2023-02-28T00:48:46.266Z,62.65
2023-02-28T00:51:15.714Z,62.60
2023-02-28T00:53:43.898Z,61.62
2023-02-28T00:56:12.281Z,62.60
2023-02-28T00:58:40.375Z,62.93
2023-02-28T01:01:09.102Z,62.67
2023-02-28T01:03:37.588Z,62.94
2023-02-28T01:06:06.702Z,62.61
2023-02-28T01:08:36.493Z,62.51
2023-02-28T01:11:11.482Z,62.77
2023-02-28T01:13:39.846Z,62.67
2023-02-28T01:16:09.522Z,63.35
2023-02-28T01:18:38.454Z,63.50
2023-02-28T01:21:07.803Z,63.82
2023-02-28T01:23:37.712Z,63.51
2023-02-28T01:26:07.847Z,63.60
2023-02-28T01:28:36.710Z,63.71
2023-02-28T01:31:05.218Z,63.83
2023-02-28T01:33:34.205Z,63.99
2023-02-28T01:36:04.109Z,64.33
2023-02-28T01:38:32.874Z,64.17
2023-02-28T01:41:03.294Z,64.33
2023-02-28T01:43:53.841Z,64.63
2023-02-28T01:46:22.409Z,63.93
2023-02-28T01:48:58.571Z,63.61
2023-02-28T01:51:33.661Z,63.23
2023-02-28T01:54:07.523Z,63.61
2023-02-28T01:56:38.951Z,63.40
2023-02-28T01:59:07.439Z,64.01
2023-02-28T02:01:35.571Z,64.48
2023-02-28T02:04:05.885Z,64.51
2023-02-28T02:06:42.369Z,63.61
2023-02-28T02:09:10.593Z,64.08
2023-02-28T02:11:44.100Z,64.30
2023-02-28T02:14:45.655Z,64.27
2023-02-28T02:17:28.218Z,63.96
2023-02-28T02:20:59.653Z,64.48
2023-02-28T02:24:11.291Z,65.18
2023-02-28T02:27:05.538Z,65.71
2023-02-28T02:29:56.683Z,65.70
2023-02-28T02:33:06.302Z,65.77
2023-02-28T02:35:44.896Z,65.13
2023-02-28T02:38:26.269Z,65.59
2023-02-28T02:41:08.459Z,65.65
2023-02-28T02:43:44.116Z,65.26
2023-02-28T02:46:18.681Z,65.58
2023-02-28T02:48:49.706Z,66.07
2023-02-28T02:51:25.088Z,66.19
2023-02-28T02:53:59.831Z,66.12
2023-02-28T02:56:33.544Z,66.26
2023-02-28T02:59:08.535Z,66.31
2023-02-28T03:01:40.610Z,65.83
2023-02-28T03:04:13.788Z,65.91
2023-02-28T03:06:43.546Z,66.30
2023-02-28T03:09:11.650Z,66.88
2023-02-28T03:11:42.791Z,66.95
2023-02-28T03:14:32.795Z,66.92
2023-02-28T03:17:33.111Z,67.56
2023-02-28T03:20:16.915Z,67.80
2023-02-28T03:23:03.638Z,68.75
2023-02-28T03:25:41.707Z,68.66
2023-02-28T03:28:20.675Z,68.45
2023-02-28T03:30:56.565Z,68.44
2023-02-28T03:33:32.303Z,68.66
2023-02-28T03:36:09.230Z,68.67
2023-02-28T03:38:46.306Z,68.77
2023-02-28T03:41:20.477Z,68.54
2023-02-28T03:43:57.189Z,68.54
2023-02-28T03:46:33.320Z,69.25
2023-02-28T03:49:13.402Z,68.72
2023-02-28T03:51:45.337Z,69.22
2023-02-28T03:54:21.379Z,69.50
2023-02-28T03:56:57.456Z,69.37
2023-02-28T03:59:32.249Z,69.87
2023-02-28T04:02:00.972Z,69.99
2023-02-28T04:04:29.301Z,69.02
2023-02-28T04:07:05.443Z,69.08
2023-02-28T04:09:35.040Z,68.49
2023-02-28T04:12:03.181Z,68.38
2023-02-28T04:14:31.358Z,67.35
2023-02-28T04:16:59.529Z,67.57
2023-02-28T04:19:27.665Z,67.82
2023-02-28T04:21:56.130Z,67.64
2023-02-28T04:24:29.710Z,67.63
2023-02-28T04:27:00.201Z,67.46
2023-02-28T04:29:30.657Z,67.09
2023-02-28T04:32:01.277Z,67.20
2023-02-28T04:34:31.762Z,66.66
2023-02-28T04:37:16.505Z,66.70
2023-02-28T04:39:45.486Z,66.38
2023-02-28T04:42:15.630Z,66.13
2023-02-28T04:44:43.734Z,66.72
2023-02-28T04:47:11.852Z,67.03
2023-02-28T04:49:40.116Z,67.03
2023-02-28T04:52:10.942Z,66.35
2023-02-28T04:54:40.023Z,66.44
2023-02-28T04:57:08.406Z,66.89
2023-02-28T04:59:37.882Z,67.57
2023-02-28T05:02:07.961Z,67.32
2023-02-28T05:04:36.528Z,67.00
2023-02-28T05:07:05.170Z,66.76
2023-02-28T05:09:34.056Z,66.38
2023-02-28T05:12:02.172Z,65.63
2023-02-28T05:14:30.302Z,65.81
2023-02-28T05:16:59.806Z,65.76
2023-02-28T05:19:27.950Z,66.00
2023-02-28T05:21:57.547Z,66.18
2023-02-28T05:24:25.857Z,66.41
2023-02-28T05:26:56.039Z,66.57
2023-02-28T05:29:24.829Z,66.89
2023-02-28T05:31:53.065Z,66.44
2023-02-28T05:34:22.728Z,67.08
2023-02-28T05:36:50.867Z,67.14
2023-02-28T05:39:19.308Z,67.54
2023-02-28T05:41:47.416Z,67.78
2023-02-28T05:44:15.767Z,67.81
2023-02-28T05:46:43.917Z,67.86
2023-02-28T05:49:12.267Z,68.29
2023-02-28T05:51:41.707Z,68.31
2023-02-28T05:54:11.922Z,68.12
2023-02-28T05:56:41.648Z,68.03
2023-02-28T05:59:09.801Z,67.97
2023-02-28T06:01:40.828Z,68.47
2023-02-28T06:04:22.396Z,68.45
2023-02-28T06:06:59.127Z,67.45
2023-02-28T06:09:27.433Z,67.17
2023-02-28T06:11:55.546Z,67.29
2023-02-28T06:14:23.778Z,67.68
2023-02-28T06:16:52.050Z,67.68
2023-02-28T06:19:20.436Z,67.90
2023-02-28T06:21:54.234Z,67.75
2023-02-28T06:24:25.536Z,66.70
2023-02-28T06:26:53.797Z,67.28
2023-02-28T06:29:22.198Z,67.82
2023-02-28T06:31:50.720Z,68.43
2023-02-28T06:34:19.293Z,67.00
2023-02-28T06:36:47.640Z,67.21
2023-02-28T06:39:15.852Z,67.29
2023-02-28T06:41:54.686Z,67.04
2023-02-28T06:44:25.445Z,66.56
2023-02-28T06:46:53.874Z,66.89
2023-02-28T06:49:22.032Z,67.02
2023-02-28T06:51:50.872Z,66.89
2023-02-28T06:54:19.019Z,66.55
2023-02-28T06:56:48.784Z,66.17
2023-02-28T06:59:16.932Z,65.85
2023-02-28T07:01:45.458Z,64.69
2023-02-28T07:04:14.164Z,64.90
2023-02-28T07:06:42.619Z,64.48
2023-02-28T07:09:11.645Z,64.77
2023-02-28T07:11:40.062Z,63.39
2023-02-28T07:14:10.229Z,63.10
2023-02-28T07:16:38.528Z,62.03
2023-02-28T07:19:07.132Z,62.26
2023-02-28T07:21:35.455Z,61.93
2023-02-28T07:24:03.518Z,61.28
2023-02-28T07:26:31.675Z,60.77
2023-02-28T07:28:59.803Z,60.23
2023-02-28T07:31:29.762Z,60.47
2023-02-28T07:33:58.298Z,60.30
2023-02-28T07:36:26.486Z,59.64
2023-02-28T07:38:54.620Z,58.97
2023-02-28T07:41:25.709Z,59.07
2023-02-28T07:43:56.386Z,58.66
2023-02-28T07:46:24.733Z,58.99
2023-02-28T07:48:56.044Z,58.30
2023-02-28T07:51:25.108Z,57.95
2023-02-28T07:53:53.244Z,57.90
2023-02-28T07:56:21.574Z,57.29
2023-02-28T07:58:49.811Z,56.13
2023-02-28T08:01:18.292Z,55.04
2023-02-28T08:03:46.458Z,54.56
2023-02-28T08:06:22.262Z,54.29
2023-02-28T08:08:50.842Z,54.40
2023-02-28T08:11:19.692Z,53.71
2023-02-28T08:13:48.147Z,53.34
2023-02-28T08:16:22.168Z,53.53
2023-02-28T08:18:52.096Z,53.13
2023-02-28T08:21:22.905Z,52.12
2023-02-28T08:23:53.138Z,51.16
2023-02-28T08:26:22.545Z,51.71
2023-02-28T08:28:51.486Z,50.88
2023-02-28T08:31:20.161Z,50.81
2023-02-28T08:33:49.636Z,50.62
2023-02-28T08:36:18.028Z,50.59
2023-02-28T08:38:47.729Z,49.67
2023-02-28T08:41:15.841Z,48.93
2023-02-28T08:43:44.117Z,48.31
2023-02-28T08:46:15.523Z,47.46
2023-02-28T08:48:44.706Z,48.01
2023-02-28T08:51:17.195Z,47.08
2023-02-28T08:53:47.448Z,47.33
2023-02-28T08:56:18.318Z,47.15
2023-02-28T08:58:48.371Z,46.80
2023-02-28T09:01:19.404Z,47.33
2023-02-28T09:03:50.723Z,48.07
2023-02-28T09:06:21.334Z,47.64
2023-02-28T09:08:51.425Z,46.47
2023-02-28T09:11:20.404Z,45.93
2023-02-28T09:13:48.774Z,46.26
2023-02-28T09:16:18.537Z,46.43
2023-02-28T09:18:47.377Z,46.76
2023-02-28T09:21:19.261Z,47.07
2023-02-28T09:23:51.141Z,45.45
2023-02-28T09:26:22.146Z,45.38
2023-02-28T09:28:51.536Z,44.88
2023-02-28T09:31:23.068Z,44.89
2023-02-28T09:33:51.840Z,45.31
2023-02-28T09:36:22.070Z,45.30
2023-02-28T09:38:53.957Z,44.86
2023-02-28T09:41:26.297Z,45.11
2023-02-28T09:43:59.016Z,44.88
2023-02-28T09:46:36.021Z,45.12
2023-02-28T09:49:09.629Z,45.10
2023-02-28T09:51:51.929Z,44.86
2023-02-28T09:54:24.559Z,44.47
2023-02-28T09:56:58.311Z,44.85
2023-02-28T09:59:46.347Z,44.91
2023-02-28T10:02:42.795Z,44.23
2023-02-28T10:05:16.023Z,44.47
2023-02-28T10:08:05.920Z,44.05
2023-02-28T10:10:43.068Z,42.75
2023-02-28T10:13:26.277Z,42.74
2023-02-28T10:16:00.216Z,42.56
2023-02-28T10:18:37.099Z,42.90
2023-02-28T10:21:06.353Z,43.29
2023-02-28T10:23:39.208Z,42.49
2023-02-28T10:26:16.974Z,42.35
2023-02-28T10:28:46.170Z,41.89
2023-02-28T10:31:21.051Z,41.83
2023-02-28T10:33:50.181Z,42.05
2023-02-28T10:36:21.170Z,42.36
2023-02-28T10:38:51.121Z,42.60
2023-02-28T10:41:35.569Z,42.12
2023-02-28T10:44:22.409Z,42.30
2023-02-28T10:46:52.793Z,42.05
2023-02-28T10:49:25.306Z,41.55
2023-02-28T10:51:58.838Z,41.50
2023-02-28T10:54:35.997Z,42.18
2023-02-28T10:57:25.373Z,42.06
2023-02-28T10:59:55.882Z,42.51
2023-02-28T11:02:38.338Z,42.56
2023-02-28T11:05:26.645Z,42.03
2023-02-28T11:07:56.848Z,41.89
2023-02-28T11:10:33.457Z,42.22
2023-02-28T11:13:04.589Z,42.49
2023-02-28T11:15:35.460Z,41.84
2023-02-28T11:18:24.807Z,41.89
2023-02-28T11:20:56.181Z,41.77
2023-02-28T11:23:28.545Z,42.11
2023-02-28T11:26:01.888Z,42.40
2023-02-28T11:28:34.371Z,42.44
2023-02-28T11:31:10.543Z,42.32
2023-02-28T11:33:46.140Z,42.10
2023-02-28T11:36:20.945Z,42.19
2023-02-28T11:38:51.388Z,42.25
2023-02-28T11:41:41.373Z,42.62
2023-02-28T11:44:31.215Z,42.73
2023-02-28T11:47:06.874Z,42.92
2023-02-28T11:49:44.431Z,43.09
2023-02-28T11:52:29.220Z,43.42
2023-02-28T11:55:16.569Z,43.47
2023-02-28T11:58:11.792Z,42.39
2023-02-28T12:01:17.031Z,42.44
2023-02-28T12:04:02.806Z,42.56
2023-02-28T12:06:40.534Z,43.18
2023-02-28T12:09:35.156Z,41.99
2023-02-28T12:12:24.438Z,40.52
2023-02-28T12:15:35.361Z,39.01
2023-02-28T12:18:35.565Z,39.43
2023-02-28T12:21:16.844Z,40.07
2023-02-28T12:24:16.686Z,40.89
2023-02-28T12:26:47.375Z,42.32
2023-02-28T12:29:23.074Z,42.79
2023-02-28T12:31:58.051Z,42.45
2023-02-28T12:34:34.847Z,42.42
2023-02-28T12:37:12.194Z,42.87
2023-02-28T12:39:50.895Z,42.88
2023-02-28T12:42:30.075Z,43.07
2023-02-28T12:45:04.205Z,43.06
2023-02-28T12:47:32.380Z,42.61
2023-02-28T12:50:07.765Z,42.54
2023-02-28T12:52:48.772Z,42.00
2023-02-28T12:55:27.646Z,41.72
2023-02-28T12:58:10.403Z,41.49
2023-02-28T13:00:51.032Z,41.92
2023-02-28T13:03:58.783Z,42.13
2023-02-28T13:06:57.970Z,42.43
2023-02-28T13:09:26.975Z,42.70
2023-02-28T13:11:57.994Z,42.89
2023-02-28T13:14:31.308Z,42.84
2023-02-28T13:17:12.815Z,43.31
2023-02-28T13:19:45.863Z,43.05
2023-02-28T13:22:41.784Z,42.75
2023-02-28T13:25:54.401Z,42.98
2023-02-28T13:29:29.149Z,42.99
2023-02-28T13:32:39.518Z,43.54
2023-02-28T13:35:37.734Z,43.68
2023-02-28T13:38:39.748Z,43.23
2023-02-28T13:41:46.514Z,43.62
2023-02-28T13:44:18.050Z,43.27
2023-02-28T13:47:31.450Z,43.52
2023-02-28T13:50:30.673Z,43.37
2023-02-28T13:53:59.478Z,43.66
2023-02-28T13:56:51.038Z,43.16
2023-02-28T13:59:34.203Z,43.05
2023-02-28T14:02:36.660Z,43.18
2023-02-28T14:07:54.090Z,43.38
2023-02-28T14:10:33.553Z,43.29
2023-02-28T14:13:13.344Z,43.52
2023-02-28T14:15:49.337Z,43.77
2023-02-28T14:18:27.378Z,43.73
2023-02-28T14:21:05.735Z,43.70
2023-02-28T14:24:21.578Z,43.68
2023-02-28T14:27:10.284Z,44.08
2023-02-28T14:31:02.453Z,44.46
2023-02-28T14:33:49.419Z,45.00
2023-02-28T14:36:24.886Z,44.47
2023-02-28T14:38:57.298Z,45.09
2023-02-28T14:41:32.670Z,44.90
2023-02-28T14:44:04.050Z,45.80
2023-02-28T14:46:41.026Z,45.23
2023-02-28T14:49:17.851Z,45.98
2023-02-28T14:51:48.190Z,45.64
2023-02-28T14:54:24.795Z,45.12
2023-02-28T14:56:53.646Z,45.60
2023-02-28T14:59:33.048Z,45.02
2023-02-28T15:02:23.513Z,45.33
2023-02-28T15:05:00.378Z,45.96
2023-02-28T15:07:32.107Z,45.83
2023-02-28T15:10:19.913Z,46.09
2023-02-28T15:12:57.140Z,46.91
2023-02-28T15:15:51.588Z,46.81
2023-02-28T15:18:44.016Z,46.71
2023-02-28T15:21:18.962Z,46.33
2023-02-28T15:23:54.191Z,46.83
2023-02-28T15:26:27.963Z,46.91
2023-02-28T15:29:02.842Z,46.96
2023-02-28T15:31:55.408Z,46.67
2023-02-28T15:34:40.555Z,46.97
2023-02-28T15:37:42.580Z,47.17
2023-02-28T15:40:18.920Z,47.10
2023-02-28T15:43:06.906Z,48.06
2023-02-28T15:45:41.873Z,47.68
2023-02-28T15:48:23.804Z,47.72
2023-02-28T15:50:56.351Z,47.96
2023-02-28T15:53:28.207Z,47.43
2023-02-28T15:56:02.701Z,48.09
2023-02-28T15:58:31.953Z,47.82
2023-02-28T16:01:22.995Z,48.62
2023-02-28T16:03:56.790Z,49.40
2023-02-28T16:06:46.826Z,48.08
2023-02-28T16:09:17.898Z,48.47
2023-02-28T16:11:49.274Z,49.38
2023-02-28T16:14:24.043Z,49.52
2023-02-28T16:16:56.216Z,49.18
2023-02-28T16:19:25.925Z,49.33
2023-02-28T16:21:54.001Z,49.33
2023-02-28T16:24:22.095Z,50.07
2023-02-28T16:26:54.232Z,49.73
2023-02-28T16:29:28.177Z,50.07
2023-02-28T16:31:56.385Z,50.77
2023-02-28T16:34:26.726Z,50.60
2023-02-28T16:36:55.161Z,51.23
2023-02-28T16:39:23.374Z,51.82
2023-02-28T16:41:53.880Z,51.88
2023-02-28T16:44:31.079Z,52.06
2023-02-28T16:47:01.352Z,52.40
2023-02-28T16:49:31.731Z,52.82
2023-02-28T16:52:00.226Z,53.04
2023-02-28T16:54:28.516Z,53.01
2023-02-28T16:56:56.886Z,53.60
2023-02-28T16:59:28.354Z,54.03
2023-02-28T17:01:58.702Z,53.94
2023-02-28T17:04:27.723Z,54.30
2023-02-28T17:06:57.255Z,54.74
2023-02-28T17:09:40.105Z,55.10
2023-02-28T17:12:10.248Z,55.42
2023-02-28T17:14:38.659Z,55.24
2023-02-28T17:17:07.039Z,55.09
2023-02-28T17:19:36.913Z,55.56
2023-02-28T17:22:06.416Z,55.94
2023-02-28T17:24:34.501Z,56.43
2023-02-28T17:27:02.694Z,56.58
2023-02-28T17:29:30.870Z,57.02
2023-02-28T17:32:03.117Z,57.14
2023-02-28T17:34:38.178Z,57.41
2023-02-28T17:37:07.782Z,57.74
2023-02-28T17:39:35.990Z,57.85
2023-02-28T17:42:04.491Z,57.86
2023-02-28T17:44:32.728Z,58.21
2023-02-28T17:47:01.868Z,58.23
2023-02-28T17:49:29.984Z,58.04
2023-02-28T17:51:58.318Z,58.16
2023-02-28T17:54:27.932Z,57.95
2023-02-28T17:56:56.254Z,57.62
2023-02-28T17:59:24.333Z,57.79
2023-02-28T18:01:52.536Z,57.94
2023-02-28T18:04:20.671Z,57.88
2023-02-28T18:06:50.615Z,57.80
2023-02-28T18:09:22.863Z,57.70
2023-02-28T18:11:54.281Z,58.54
2023-02-28T18:14:26.281Z,58.76
2023-02-28T18:16:56.047Z,57.96
2023-02-28T18:19:25.048Z,58.82
2023-02-28T18:21:55.046Z,58.37
2023-02-28T18:24:25.016Z,58.82
2023-02-28T18:26:54.668Z,59.71
2023-02-28T18:29:25.961Z,59.32
2023-02-28T18:31:55.287Z,60.07
2023-02-28T18:34:25.622Z,59.84
2023-02-28T18:36:54.338Z,59.48
2023-02-28T18:39:22.526Z,59.25
2023-02-28T18:41:50.565Z,59.82
2023-02-28T18:44:21.416Z,60.32
2023-02-28T18:46:50.540Z,61.53
2023-02-28T18:49:19.078Z,62.14
2023-02-28T18:51:48.039Z,62.96
2023-02-28T18:54:18.071Z,63.80
2023-02-28T18:56:46.666Z,63.89
2023-02-28T18:59:15.075Z,63.39
2023-02-28T19:01:46.543Z,62.04
2023-02-28T19:04:15.404Z,61.62
2023-02-28T19:06:43.771Z,62.89
2023-02-28T19:09:12.072Z,63.64
2023-02-28T19:11:40.546Z,63.19
2023-02-28T19:14:09.435Z,62.23
2023-02-28T19:16:38.043Z,62.55
2023-02-28T19:19:07.699Z,61.07
2023-02-28T19:21:36.883Z,59.92
2023-02-28T19:24:05.755Z,60.23
2023-02-28T19:26:33.905Z,60.45
2023-02-28T19:29:05.023Z,60.75
2023-02-28T19:31:33.666Z,60.58
2023-02-28T19:34:02.422Z,60.61
2023-02-28T19:36:31.877Z,60.94
2023-02-28T19:39:00.166Z,60.84
2023-02-28T19:41:28.508Z,60.96
2023-02-28T19:43:57.121Z,61.15
2023-02-28T19:46:26.149Z,61.20
2023-02-28T19:48:55.271Z,61.81
2023-02-28T19:51:24.070Z,61.24
2023-02-28T19:53:53.826Z,62.52
2023-02-28T19:56:22.354Z,62.21
2023-02-28T19:58:50.428Z,61.86
2023-02-28T20:01:20.715Z,62.39
2023-02-28T20:03:50.425Z,61.59
2023-02-28T20:06:19.715Z,61.81
2023-02-28T20:08:47.833Z,61.81
2023-02-28T20:11:18.628Z,61.38
2023-02-28T20:13:47.170Z,62.05
2023-02-28T20:16:16.651Z,62.06
2023-02-28T20:18:46.104Z,61.73
2023-02-28T20:21:16.479Z,62.44
2023-02-28T20:23:48.488Z,62.94
2023-02-28T20:26:20.033Z,63.03
2023-02-28T20:28:49.039Z,62.46
2023-02-28T20:31:19.865Z,61.69
2023-02-28T20:33:50.566Z,62.65
2023-02-28T20:36:23.549Z,62.30
2023-02-28T20:38:53.942Z,61.60
2023-02-28T20:41:24.148Z,61.77
2023-02-28T20:43:58.116Z,61.41
2023-02-28T20:46:26.623Z,61.74
2023-02-28T20:48:54.889Z,63.03
2023-02-28T20:51:23.183Z,63.35
2023-02-28T20:53:51.354Z,63.41
2023-02-28T20:56:23.643Z,63.78
2023-02-28T20:58:57.444Z,63.93
2023-02-28T21:01:27.857Z,64.11
2023-02-28T21:03:59.436Z,64.57
2023-02-28T21:06:31.087Z,65.02
2023-02-28T21:09:00.475Z,65.10
2023-02-28T21:11:32.778Z,65.62
2023-02-28T21:14:05.232Z,66.64
2023-02-28T21:16:36.547Z,67.26
2023-02-28T21:19:05.891Z,67.01
2023-02-28T21:21:38.335Z,65.50
2023-02-28T21:24:07.279Z,64.77
2023-02-28T21:26:35.766Z,63.88
2023-02-28T21:29:05.441Z,63.39
2023-02-28T21:31:35.671Z,63.34
2023-02-28T21:34:07.081Z,63.20
2023-02-28T21:36:40.068Z,63.06
2023-02-28T21:39:13.494Z,62.73
2023-02-28T21:41:42.793Z,62.87
2023-02-28T21:44:18.216Z,62.62
2023-02-28T21:46:48.067Z,62.65
2023-02-28T21:49:17.703Z,62.83
2023-02-28T21:51:46.185Z,62.75
2023-02-28T21:54:14.961Z,63.31
2023-02-28T21:56:43.135Z,63.58
2023-02-28T21:59:12.760Z,64.27
2023-02-28T22:01:44.039Z,64.53
2023-02-28T22:04:20.909Z,63.94
2023-02-28T22:06:51.660Z,64.88
2023-02-28T22:09:20.779Z,65.70
2023-02-28T22:11:49.100Z,65.88
2023-02-28T22:14:19.542Z,66.15
2023-02-28T22:16:53.729Z,65.81
2023-02-28T22:19:23.574Z,66.20
2023-02-28T22:21:53.690Z,65.93
2023-02-28T22:24:24.231Z,65.30
2023-02-28T22:26:53.933Z,65.06
2023-02-28T22:29:23.861Z,64.86
2023-02-28T22:31:52.540Z,65.38
2023-02-28T22:34:20.743Z,65.93
2023-02-28T22:36:48.994Z,65.77
2023-02-28T22:39:17.573Z,66.10
2023-02-28T22:41:45.882Z,66.10
2023-02-28T22:44:14.058Z,66.30
2023-02-28T22:46:43.824Z,65.53
2023-02-28T22:49:12.043Z,65.59
2023-02-28T22:51:40.312Z,65.46
2023-02-28T22:54:08.441Z,66.08
2023-02-28T22:56:36.851Z,66.81
2023-02-28T22:59:05.375Z,66.49
2023-02-28T23:01:35.446Z,65.33
2023-02-28T23:04:05.578Z,65.10
2023-02-28T23:06:37.763Z,64.62
2023-02-28T23:09:09.382Z,64.48
2023-02-28T23:11:41.401Z,64.66
2023-02-28T23:14:12.701Z,64.74
2023-02-28T23:16:44.242Z,63.57
2023-02-28T23:19:17.247Z,62.51
2023-02-28T23:21:46.794Z,62.34
2023-02-28T23:24:18.191Z,63.14
2023-02-28T23:26:51.027Z,63.14
2023-02-28T23:29:22.333Z,62.99
2023-02-28T23:31:51.226Z,63.35
2023-02-28T23:34:26.181Z,62.97
2023-02-28T23:36:55.785Z,63.35
2023-02-28T23:39:24.697Z,63.80
2023-02-28T23:41:52.890Z,63.95
2023-02-28T23:44:21.035Z,64.32
2023-02-28T23:46:51.899Z,63.52
2023-02-28T23:49:23.397Z,63.41
2023-02-28T23:51:54.564Z,63.23
2023-02-28T23:54:23.241Z,63.12
2023-02-28T23:56:51.626Z,63.81
2023-02-28T23:59:19.787Z,63.73
